sensor_id;sensor_type;location;lat;lon;timestamp;P1;durP1;ratioP1;P2;durP2;ratioP2
30934;SDS011;51033;42.648;23.292;2023-07-29T00:01:07;3.85;;;2.10;;
30934;SDS011;51033;42.648;23.292;2023-07-29T00:03:32;2.92;;;2.10;;
30934;SDS011;51033;42.648;23.292;2023-07-29T00:05:57;2.58;;;2.03;;
30934;SDS011;51033;42.648;23.292;2023-07-29T00:08:23;4.90;;;2.33;;
30934;SDS011;51033;42.648;23.292;2023-07-29T00:10:49;3.63;;;2.38;;
30934;SDS011;51033;42.648;23.292;2023-07-29T00:13:14;3.00;;;2.17;;
30934;SDS011;51033;42.648;23.292;2023-07-29T00:15:39;2.67;;;2.38;;
30934;SDS011;51033;42.648;23.292;2023-07-29T00:18:05;1.98;;;1.77;;
30934;SDS011;51033;42.648;23.292;2023-07-29T00:20:30;4.22;;;2.10;;
30934;SDS011;51033;42.648;23.292;2023-07-29T00:22:55;1.95;;;1.73;;
30934;SDS011;51033;42.648;23.292;2023-07-29T00:25:23;3.25;;;2.00;;
30934;SDS011;51033;42.648;23.292;2023-07-29T00:27:48;4.20;;;2.38;;
30934;SDS011;51033;42.648;23.292;2023-07-29T00:30:13;2.72;;;2.00;;
30934;SDS011;51033;42.648;23.292;2023-07-29T00:32:39;3.60;;;2.20;;
30934;SDS011;51033;42.648;23.292;2023-07-29T00:35:04;3.35;;;2.85;;
30934;SDS011;51033;42.648;23.292;2023-07-29T00:37:30;3.35;;;2.22;;
30934;SDS011;51033;42.648;23.292;2023-07-29T00:39:56;2.95;;;2.35;;
30934;SDS011;51033;42.648;23.292;2023-07-29T00:42:23;3.22;;;2.25;;
30934;SDS011;51033;42.648;23.292;2023-07-29T00:44:48;3.30;;;2.33;;
30934;SDS011;51033;42.648;23.292;2023-07-29T00:47:14;5.28;;;2.28;;
30934;SDS011;51033;42.648;23.292;2023-07-29T00:49:40;2.45;;;2.10;;
30934;SDS011;51033;42.648;23.292;2023-07-29T00:52:07;4.95;;;2.67;;
30934;SDS011;51033;42.648;23.292;2023-07-29T00:54:33;3.13;;;2.38;;
30934;SDS011;51033;42.648;23.292;2023-07-29T00:56:58;2.40;;;2.03;;
30934;SDS011;51033;42.648;23.292;2023-07-29T00:59:24;3.35;;;2.63;;
30934;SDS011;51033;42.648;23.292;2023-07-29T01:01:50;2.80;;;2.47;;
30934;SDS011;51033;42.648;23.292;2023-07-29T01:04:16;2.45;;;2.05;;
30934;SDS011;51033;42.648;23.292;2023-07-29T01:12:07;2.35;;;2.00;;
30934;SDS011;51033;42.648;23.292;2023-07-29T01:14:51;3.45;;;2.80;;
30934;SDS011;51033;42.648;23.292;2023-07-29T01:17:59;2.88;;;2.53;;
30934;SDS011;51033;42.648;23.292;2023-07-29T01:20:35;3.22;;;2.33;;
30934;SDS011;51033;42.648;23.292;2023-07-29T01:23:03;4.35;;;2.40;;
30934;SDS011;51033;42.648;23.292;2023-07-29T01:25:29;5.57;;;2.80;;
30934;SDS011;51033;42.648;23.292;2023-07-29T01:27:54;8.68;;;2.67;;
30934;SDS011;51033;42.648;23.292;2023-07-29T01:30:20;3.35;;;2.50;;
30934;SDS011;51033;42.648;23.292;2023-07-29T01:35:48;4.55;;;2.92;;
30934;SDS011;51033;42.648;23.292;2023-07-29T01:38:30;3.50;;;2.70;;
30934;SDS011;51033;42.648;23.292;2023-07-29T01:41:07;2.72;;;2.53;;
30934;SDS011;51033;42.648;23.292;2023-07-29T01:43:33;2.80;;;2.55;;
30934;SDS011;51033;42.648;23.292;2023-07-29T01:46:04;3.85;;;2.50;;
30934;SDS011;51033;42.648;23.292;2023-07-29T01:48:29;3.22;;;2.80;;
30934;SDS011;51033;42.648;23.292;2023-07-29T01:50:56;3.72;;;2.88;;
30934;SDS011;51033;42.648;23.292;2023-07-29T01:53:22;3.05;;;2.58;;
30934;SDS011;51033;42.648;23.292;2023-07-29T01:55:47;3.42;;;2.70;;
30934;SDS011;51033;42.648;23.292;2023-07-29T01:58:13;4.38;;;2.45;;
30934;SDS011;51033;42.648;23.292;2023-07-29T02:00:39;2.83;;;2.45;;
30934;SDS011;51033;42.648;23.292;2023-07-29T02:03:05;3.03;;;2.55;;
30934;SDS011;51033;42.648;23.292;2023-07-29T02:05:30;4.00;;;2.53;;
30934;SDS011;51033;42.648;23.292;2023-07-29T02:07:56;3.03;;;2.22;;
30934;SDS011;51033;42.648;23.292;2023-07-29T02:10:21;4.65;;;3.35;;
30934;SDS011;51033;42.648;23.292;2023-07-29T02:12:46;3.95;;;3.28;;
30934;SDS011;51033;42.648;23.292;2023-07-29T02:15:12;6.05;;;2.55;;
30934;SDS011;51033;42.648;23.292;2023-07-29T02:17:37;8.57;;;3.10;;
30934;SDS011;51033;42.648;23.292;2023-07-29T02:20:03;8.55;;;3.10;;
30934;SDS011;51033;42.648;23.292;2023-07-29T02:22:29;4.07;;;2.70;;
30934;SDS011;51033;42.648;23.292;2023-07-29T02:24:55;4.38;;;2.78;;
30934;SDS011;51033;42.648;23.292;2023-07-29T02:27:20;6.53;;;3.10;;
30934;SDS011;51033;42.648;23.292;2023-07-29T02:29:46;3.15;;;2.75;;
30934;SDS011;51033;42.648;23.292;2023-07-29T02:32:11;4.78;;;3.35;;
30934;SDS011;51033;42.648;23.292;2023-07-29T02:34:36;6.47;;;3.08;;
30934;SDS011;51033;42.648;23.292;2023-07-29T02:37:02;4.80;;;3.33;;
30934;SDS011;51033;42.648;23.292;2023-07-29T02:39:28;4.32;;;3.65;;
30934;SDS011;51033;42.648;23.292;2023-07-29T02:41:53;4.10;;;3.25;;
30934;SDS011;51033;42.648;23.292;2023-07-29T02:44:20;3.20;;;2.90;;
30934;SDS011;51033;42.648;23.292;2023-07-29T02:46:45;5.80;;;3.70;;
30934;SDS011;51033;42.648;23.292;2023-07-29T02:49:11;4.80;;;3.65;;
30934;SDS011;51033;42.648;23.292;2023-07-29T02:51:36;6.63;;;3.60;;
30934;SDS011;51033;42.648;23.292;2023-07-29T02:54:01;4.50;;;3.70;;
30934;SDS011;51033;42.648;23.292;2023-07-29T02:56:27;4.40;;;4.00;;
30934;SDS011;51033;42.648;23.292;2023-07-29T02:58:53;5.72;;;2.90;;
30934;SDS011;51033;42.648;23.292;2023-07-29T03:01:18;4.47;;;3.20;;
30934;SDS011;51033;42.648;23.292;2023-07-29T03:03:44;5.90;;;3.72;;
30934;SDS011;51033;42.648;23.292;2023-07-29T03:06:10;3.53;;;2.95;;
30934;SDS011;51033;42.648;23.292;2023-07-29T03:08:36;10.25;;;3.03;;
30934;SDS011;51033;42.648;23.292;2023-07-29T03:11:20;3.85;;;3.33;;
30934;SDS011;51033;42.648;23.292;2023-07-29T03:13:45;4.75;;;3.40;;
30934;SDS011;51033;42.648;23.292;2023-07-29T03:16:11;4.68;;;3.30;;
30934;SDS011;51033;42.648;23.292;2023-07-29T03:18:41;7.13;;;3.80;;
30934;SDS011;51033;42.648;23.292;2023-07-29T03:21:09;4.35;;;3.00;;
30934;SDS011;51033;42.648;23.292;2023-07-29T03:23:35;11.10;;;4.50;;
30934;SDS011;51033;42.648;23.292;2023-07-29T03:26:02;4.05;;;3.25;;
30934;SDS011;51033;42.648;23.292;2023-07-29T03:28:34;9.65;;;3.08;;
30934;SDS011;51033;42.648;23.292;2023-07-29T03:31:01;8.60;;;3.42;;
30934;SDS011;51033;42.648;23.292;2023-07-29T03:33:26;8.65;;;3.20;;
30934;SDS011;51033;42.648;23.292;2023-07-29T03:35:52;7.30;;;3.22;;
30934;SDS011;51033;42.648;23.292;2023-07-29T03:38:18;5.55;;;2.78;;
30934;SDS011;51033;42.648;23.292;2023-07-29T03:40:43;6.93;;;2.90;;
30934;SDS011;51033;42.648;23.292;2023-07-29T03:43:09;8.35;;;3.58;;
30934;SDS011;51033;42.648;23.292;2023-07-29T03:45:35;12.32;;;3.53;;
30934;SDS011;51033;42.648;23.292;2023-07-29T03:48:01;9.70;;;3.28;;
30934;SDS011;51033;42.648;23.292;2023-07-29T03:50:27;7.68;;;3.72;;
30934;SDS011;51033;42.648;23.292;2023-07-29T03:52:53;11.88;;;5.53;;
30934;SDS011;51033;42.648;23.292;2023-07-29T03:55:19;15.85;;;3.95;;
30934;SDS011;51033;42.648;23.292;2023-07-29T03:57:45;9.00;;;3.60;;
30934;SDS011;51033;42.648;23.292;2023-07-29T04:00:10;9.88;;;3.72;;
30934;SDS011;51033;42.648;23.292;2023-07-29T04:02:36;7.22;;;3.15;;
30934;SDS011;51033;42.648;23.292;2023-07-29T04:05:02;7.15;;;4.05;;
30934;SDS011;51033;42.648;23.292;2023-07-29T04:07:29;5.50;;;4.15;;
30934;SDS011;51033;42.648;23.292;2023-07-29T04:09:55;7.50;;;4.07;;
30934;SDS011;51033;42.648;23.292;2023-07-29T04:12:21;8.55;;;4.47;;
30934;SDS011;51033;42.648;23.292;2023-07-29T04:14:47;9.20;;;5.03;;
30934;SDS011;51033;42.648;23.292;2023-07-29T04:17:13;5.38;;;4.55;;
30934;SDS011;51033;42.648;23.292;2023-07-29T04:19:38;5.55;;;4.13;;
30934;SDS011;51033;42.648;23.292;2023-07-29T04:22:03;9.05;;;4.95;;
30934;SDS011;51033;42.648;23.292;2023-07-29T04:24:29;5.28;;;4.55;;
30934;SDS011;51033;42.648;23.292;2023-07-29T04:26:55;7.90;;;4.65;;
30934;SDS011;51033;42.648;23.292;2023-07-29T04:29:20;6.80;;;4.55;;
30934;SDS011;51033;42.648;23.292;2023-07-29T04:31:47;10.68;;;5.00;;
30934;SDS011;51033;42.648;23.292;2023-07-29T04:34:13;9.25;;;4.68;;
30934;SDS011;51033;42.648;23.292;2023-07-29T04:36:38;11.95;;;5.05;;
30934;SDS011;51033;42.648;23.292;2023-07-29T04:39:03;6.50;;;4.68;;
30934;SDS011;51033;42.648;23.292;2023-07-29T04:41:29;9.88;;;4.97;;
30934;SDS011;51033;42.648;23.292;2023-07-29T04:43:54;5.18;;;4.68;;
30934;SDS011;51033;42.648;23.292;2023-07-29T04:46:20;9.77;;;5.57;;
30934;SDS011;51033;42.648;23.292;2023-07-29T04:48:45;12.98;;;4.35;;
30934;SDS011;51033;42.648;23.292;2023-07-29T04:51:11;8.63;;;5.38;;
30934;SDS011;51033;42.648;23.292;2023-07-29T04:53:36;6.65;;;4.95;;
30934;SDS011;51033;42.648;23.292;2023-07-29T04:56:02;5.35;;;4.43;;
30934;SDS011;51033;42.648;23.292;2023-07-29T04:58:28;14.68;;;6.38;;
30934;SDS011;51033;42.648;23.292;2023-07-29T05:00:55;11.05;;;5.20;;
30934;SDS011;51033;42.648;23.292;2023-07-29T05:03:21;6.22;;;4.53;;
30934;SDS011;51033;42.648;23.292;2023-07-29T05:05:46;6.90;;;5.63;;
30934;SDS011;51033;42.648;23.292;2023-07-29T05:08:12;5.97;;;5.38;;
30934;SDS011;51033;42.648;23.292;2023-07-29T05:10:37;6.07;;;5.00;;
30934;SDS011;51033;42.648;23.292;2023-07-29T05:13:02;6.95;;;5.60;;
30934;SDS011;51033;42.648;23.292;2023-07-29T05:15:28;7.28;;;5.68;;
30934;SDS011;51033;42.648;23.292;2023-07-29T05:17:53;8.00;;;5.63;;
30934;SDS011;51033;42.648;23.292;2023-07-29T05:20:19;9.23;;;6.03;;
30934;SDS011;51033;42.648;23.292;2023-07-29T05:22:44;11.25;;;5.65;;
30934;SDS011;51033;42.648;23.292;2023-07-29T05:25:10;11.32;;;6.63;;
30934;SDS011;51033;42.648;23.292;2023-07-29T05:27:35;11.27;;;6.32;;
30934;SDS011;51033;42.648;23.292;2023-07-29T05:30:01;9.77;;;5.15;;
30934;SDS011;51033;42.648;23.292;2023-07-29T05:32:26;9.63;;;4.80;;
30934;SDS011;51033;42.648;23.292;2023-07-29T05:34:51;13.20;;;5.78;;
30934;SDS011;51033;42.648;23.292;2023-07-29T05:37:17;8.68;;;4.90;;
30934;SDS011;51033;42.648;23.292;2023-07-29T05:39:42;9.63;;;6.70;;
30934;SDS011;51033;42.648;23.292;2023-07-29T05:42:07;13.23;;;5.85;;
30934;SDS011;51033;42.648;23.292;2023-07-29T05:44:33;8.63;;;5.75;;
30934;SDS011;51033;42.648;23.292;2023-07-29T05:46:58;10.85;;;5.38;;
30934;SDS011;51033;42.648;23.292;2023-07-29T05:49:23;8.45;;;6.60;;
30934;SDS011;51033;42.648;23.292;2023-07-29T05:51:49;9.95;;;4.95;;
30934;SDS011;51033;42.648;23.292;2023-07-29T05:54:17;5.53;;;4.78;;
30934;SDS011;51033;42.648;23.292;2023-07-29T05:56:43;7.82;;;5.40;;
30934;SDS011;51033;42.648;23.292;2023-07-29T05:59:08;8.25;;;4.70;;
30934;SDS011;51033;42.648;23.292;2023-07-29T06:01:34;9.80;;;4.40;;
30934;SDS011;51033;42.648;23.292;2023-07-29T06:04:00;9.60;;;4.93;;
30934;SDS011;51033;42.648;23.292;2023-07-29T06:06:25;9.38;;;4.80;;
30934;SDS011;51033;42.648;23.292;2023-07-29T06:08:51;11.15;;;4.53;;
30934;SDS011;51033;42.648;23.292;2023-07-29T06:11:16;6.32;;;4.47;;
30934;SDS011;51033;42.648;23.292;2023-07-29T06:13:42;10.30;;;4.72;;
30934;SDS011;51033;42.648;23.292;2023-07-29T06:16:07;7.82;;;4.50;;
30934;SDS011;51033;42.648;23.292;2023-07-29T06:18:32;4.20;;;3.80;;
30934;SDS011;51033;42.648;23.292;2023-07-29T06:20:58;6.22;;;4.13;;
30934;SDS011;51033;42.648;23.292;2023-07-29T06:23:23;4.38;;;3.92;;
30934;SDS011;51033;42.648;23.292;2023-07-29T06:25:49;4.53;;;3.60;;
30934;SDS011;51033;42.648;23.292;2023-07-29T06:28:14;7.75;;;4.53;;
30934;SDS011;51033;42.648;23.292;2023-07-29T06:30:39;6.35;;;3.90;;
30934;SDS011;51033;42.648;23.292;2023-07-29T06:33:05;4.57;;;3.83;;
30934;SDS011;51033;42.648;23.292;2023-07-29T06:35:31;5.95;;;4.95;;
30934;SDS011;51033;42.648;23.292;2023-07-29T06:37:56;5.78;;;3.95;;
30934;SDS011;51033;42.648;23.292;2023-07-29T06:40:22;6.88;;;4.07;;
30934;SDS011;51033;42.648;23.292;2023-07-29T06:42:47;9.38;;;3.80;;
30934;SDS011;51033;42.648;23.292;2023-07-29T06:45:13;6.32;;;3.42;;
30934;SDS011;51033;42.648;23.292;2023-07-29T06:47:38;4.15;;;3.53;;
30934;SDS011;51033;42.648;23.292;2023-07-29T06:50:04;3.78;;;2.92;;
30934;SDS011;51033;42.648;23.292;2023-07-29T06:52:29;3.47;;;3.17;;
30934;SDS011;51033;42.648;23.292;2023-07-29T06:54:55;7.40;;;3.70;;
30934;SDS011;51033;42.648;23.292;2023-07-29T06:57:21;4.25;;;3.42;;
30934;SDS011;51033;42.648;23.292;2023-07-29T06:59:46;6.55;;;3.65;;
30934;SDS011;51033;42.648;23.292;2023-07-29T07:02:12;5.70;;;3.83;;
30934;SDS011;51033;42.648;23.292;2023-07-29T07:04:37;6.28;;;3.33;;
30934;SDS011;51033;42.648;23.292;2023-07-29T07:07:02;5.10;;;3.45;;
30934;SDS011;51033;42.648;23.292;2023-07-29T07:09:28;3.67;;;3.20;;
30934;SDS011;51033;42.648;23.292;2023-07-29T07:11:53;7.68;;;3.58;;
30934;SDS011;51033;42.648;23.292;2023-07-29T07:14:19;6.78;;;3.45;;
30934;SDS011;51033;42.648;23.292;2023-07-29T07:16:44;6.07;;;3.53;;
30934;SDS011;51033;42.648;23.292;2023-07-29T07:19:10;5.25;;;3.30;;
30934;SDS011;51033;42.648;23.292;2023-07-29T07:21:36;4.20;;;3.38;;
30934;SDS011;51033;42.648;23.292;2023-07-29T07:24:01;5.45;;;3.40;;
30934;SDS011;51033;42.648;23.292;2023-07-29T07:26:26;9.13;;;3.08;;
30934;SDS011;51033;42.648;23.292;2023-07-29T07:28:52;8.48;;;3.63;;
30934;SDS011;51033;42.648;23.292;2023-07-29T07:31:17;6.85;;;4.18;;
30934;SDS011;51033;42.648;23.292;2023-07-29T07:33:43;11.60;;;3.75;;
30934;SDS011;51033;42.648;23.292;2023-07-29T07:36:08;3.58;;;3.28;;
30934;SDS011;51033;42.648;23.292;2023-07-29T07:38:33;6.00;;;3.53;;
30934;SDS011;51033;42.648;23.292;2023-07-29T07:40:59;4.40;;;3.00;;
30934;SDS011;51033;42.648;23.292;2023-07-29T07:43:24;4.75;;;3.38;;
30934;SDS011;51033;42.648;23.292;2023-07-29T07:45:50;5.50;;;3.40;;
30934;SDS011;51033;42.648;23.292;2023-07-29T07:48:16;4.75;;;3.50;;
30934;SDS011;51033;42.648;23.292;2023-07-29T07:50:42;4.82;;;3.30;;
30934;SDS011;51033;42.648;23.292;2023-07-29T07:53:08;6.70;;;3.30;;
30934;SDS011;51033;42.648;23.292;2023-07-29T07:55:34;4.63;;;4.10;;
30934;SDS011;51033;42.648;23.292;2023-07-29T07:57:59;4.05;;;3.38;;
30934;SDS011;51033;42.648;23.292;2023-07-29T08:00:24;3.92;;;3.35;;
30934;SDS011;51033;42.648;23.292;2023-07-29T08:02:50;4.55;;;3.38;;
30934;SDS011;51033;42.648;23.292;2023-07-29T08:05:23;4.97;;;3.33;;
30934;SDS011;51033;42.648;23.292;2023-07-29T08:08:04;4.93;;;2.92;;
30934;SDS011;51033;42.648;23.292;2023-07-29T08:10:31;4.82;;;3.35;;
30934;SDS011;51033;42.648;23.292;2023-07-29T08:12:57;3.65;;;3.03;;
30934;SDS011;51033;42.648;23.292;2023-07-29T08:15:24;7.95;;;3.45;;
30934;SDS011;51033;42.648;23.292;2023-07-29T08:17:50;5.75;;;3.65;;
30934;SDS011;51033;42.648;23.292;2023-07-29T08:20:15;6.45;;;3.53;;
30934;SDS011;51033;42.648;23.292;2023-07-29T08:22:41;3.88;;;2.90;;
30934;SDS011;51033;42.648;23.292;2023-07-29T08:25:07;7.45;;;3.50;;
30934;SDS011;51033;42.648;23.292;2023-07-29T08:27:33;4.40;;;3.47;;
30934;SDS011;51033;42.648;23.292;2023-07-29T08:29:59;5.47;;;3.08;;
30934;SDS011;51033;42.648;23.292;2023-07-29T08:32:26;3.42;;;2.97;;
30934;SDS011;51033;42.648;23.292;2023-07-29T08:34:52;3.85;;;3.20;;
30934;SDS011;51033;42.648;23.292;2023-07-29T08:37:17;4.38;;;3.05;;
30934;SDS011;51033;42.648;23.292;2023-07-29T08:39:43;5.55;;;3.33;;
30934;SDS011;51033;42.648;23.292;2023-07-29T08:42:08;3.80;;;2.83;;
30934;SDS011;51033;42.648;23.292;2023-07-29T08:44:40;4.63;;;3.60;;
30934;SDS011;51033;42.648;23.292;2023-07-29T08:47:07;4.85;;;3.80;;
30934;SDS011;51033;42.648;23.292;2023-07-29T08:49:33;7.55;;;3.92;;
30934;SDS011;51033;42.648;23.292;2023-07-29T08:51:59;5.22;;;3.30;;
30934;SDS011;51033;42.648;23.292;2023-07-29T08:54:24;4.55;;;3.10;;
30934;SDS011;51033;42.648;23.292;2023-07-29T08:56:50;6.25;;;3.00;;
30934;SDS011;51033;42.648;23.292;2023-07-29T08:59:16;2.90;;;2.42;;
30934;SDS011;51033;42.648;23.292;2023-07-29T09:01:42;3.95;;;1.88;;
30934;SDS011;51033;42.648;23.292;2023-07-29T09:04:08;2.17;;;1.85;;
30934;SDS011;51033;42.648;23.292;2023-07-29T09:06:35;3.08;;;1.80;;
30934;SDS011;51033;42.648;23.292;2023-07-29T09:09:03;3.35;;;1.83;;
30934;SDS011;51033;42.648;23.292;2023-07-29T09:11:29;4.45;;;1.38;;
30934;SDS011;51033;42.648;23.292;2023-07-29T09:13:57;3.00;;;1.30;;
30934;SDS011;51033;42.648;23.292;2023-07-29T09:16:23;4.82;;;2.00;;
30934;SDS011;51033;42.648;23.292;2023-07-29T09:18:49;4.88;;;2.17;;
30934;SDS011;51033;42.648;23.292;2023-07-29T09:21:25;2.22;;;1.50;;
30934;SDS011;51033;42.648;23.292;2023-07-29T09:23:51;3.88;;;1.92;;
30934;SDS011;51033;42.648;23.292;2023-07-29T09:26:24;3.45;;;1.50;;
30934;SDS011;51033;42.648;23.292;2023-07-29T09:28:51;6.70;;;1.87;;
30934;SDS011;51033;42.648;23.292;2023-07-29T09:31:20;3.15;;;1.67;;
30934;SDS011;51033;42.648;23.292;2023-07-29T09:33:46;5.65;;;2.15;;
30934;SDS011;51033;42.648;23.292;2023-07-29T09:36:11;3.85;;;2.60;;
30934;SDS011;51033;42.648;23.292;2023-07-29T09:38:37;4.22;;;2.35;;
30934;SDS011;51033;42.648;23.292;2023-07-29T09:41:03;5.13;;;2.22;;
30934;SDS011;51033;42.648;23.292;2023-07-29T09:43:29;2.55;;;1.52;;
30934;SDS011;51033;42.648;23.292;2023-07-29T09:46:00;3.55;;;1.92;;
30934;SDS011;51033;42.648;23.292;2023-07-29T09:48:26;3.40;;;1.30;;
30934;SDS011;51033;42.648;23.292;2023-07-29T09:50:54;4.18;;;2.28;;
30934;SDS011;51033;42.648;23.292;2023-07-29T09:53:24;3.22;;;1.70;;
30934;SDS011;51033;42.648;23.292;2023-07-29T09:55:53;2.53;;;1.95;;
30934;SDS011;51033;42.648;23.292;2023-07-29T09:58:21;5.22;;;1.50;;
30934;SDS011;51033;42.648;23.292;2023-07-29T10:00:51;2.88;;;1.35;;
30934;SDS011;51033;42.648;23.292;2023-07-29T10:03:20;2.47;;;1.50;;
30934;SDS011;51033;42.648;23.292;2023-07-29T10:05:53;3.28;;;1.80;;
30934;SDS011;51033;42.648;23.292;2023-07-29T10:08:19;3.30;;;2.08;;
30934;SDS011;51033;42.648;23.292;2023-07-29T10:10:49;1.75;;;1.50;;
30934;SDS011;51033;42.648;23.292;2023-07-29T10:13:15;3.47;;;1.42;;
30934;SDS011;51033;42.648;23.292;2023-07-29T10:15:41;1.85;;;1.23;;
30934;SDS011;51033;42.648;23.292;2023-07-29T10:18:07;3.10;;;1.30;;
30934;SDS011;51033;42.648;23.292;2023-07-29T10:20:32;3.15;;;1.30;;
30934;SDS011;51033;42.648;23.292;2023-07-29T10:22:59;2.42;;;1.48;;
30934;SDS011;51033;42.648;23.292;2023-07-29T10:25:26;5.07;;;1.50;;
30934;SDS011;51033;42.648;23.292;2023-07-29T10:28:06;3.25;;;1.60;;
30934;SDS011;51033;42.648;23.292;2023-07-29T10:30:32;3.50;;;1.63;;
30934;SDS011;51033;42.648;23.292;2023-07-29T10:32:58;2.28;;;1.40;;
30934;SDS011;51033;42.648;23.292;2023-07-29T10:35:27;3.90;;;1.60;;
30934;SDS011;51033;42.648;23.292;2023-07-29T10:37:53;2.70;;;1.83;;
30934;SDS011;51033;42.648;23.292;2023-07-29T10:40:20;4.78;;;1.50;;
30934;SDS011;51033;42.648;23.292;2023-07-29T10:43:00;5.97;;;1.48;;
30934;SDS011;51033;42.648;23.292;2023-07-29T10:45:50;2.83;;;1.15;;
30934;SDS011;51033;42.648;23.292;2023-07-29T10:53:51;1.50;;;1.15;;
30934;SDS011;51033;42.648;23.292;2023-07-29T10:56:24;1.48;;;0.90;;
30934;SDS011;51033;42.648;23.292;2023-07-29T10:58:51;2.63;;;1.00;;
30934;SDS011;51033;42.648;23.292;2023-07-29T11:01:26;1.48;;;1.10;;
30934;SDS011;51033;42.648;23.292;2023-07-29T11:12:05;2.05;;;1.10;;
30934;SDS011;51033;42.648;23.292;2023-07-29T11:14:51;2.38;;;0.93;;
30934;SDS011;51033;42.648;23.292;2023-07-29T11:17:16;3.30;;;1.20;;
30934;SDS011;51033;42.648;23.292;2023-07-29T11:19:42;4.38;;;1.20;;
30934;SDS011;51033;42.648;23.292;2023-07-29T11:22:09;4.72;;;1.15;;
30934;SDS011;51033;42.648;23.292;2023-07-29T11:24:35;4.28;;;1.10;;
30934;SDS011;51033;42.648;23.292;2023-07-29T11:27:00;0.85;;;0.70;;
30934;SDS011;51033;42.648;23.292;2023-07-29T11:29:25;3.15;;;0.70;;
30934;SDS011;51033;42.648;23.292;2023-07-29T11:31:51;1.27;;;0.98;;
30934;SDS011;51033;42.648;23.292;2023-07-29T11:34:16;2.80;;;0.95;;
30934;SDS011;51033;42.648;23.292;2023-07-29T11:36:49;2.67;;;0.88;;
30934;SDS011;51033;42.648;23.292;2023-07-29T11:39:16;1.67;;;1.00;;
30934;SDS011;51033;42.648;23.292;2023-07-29T11:41:42;1.77;;;1.15;;
30934;SDS011;51033;42.648;23.292;2023-07-29T11:44:09;4.18;;;1.02;;
30934;SDS011;51033;42.648;23.292;2023-07-29T11:46:41;2.60;;;0.98;;
30934;SDS011;51033;42.648;23.292;2023-07-29T11:49:08;3.63;;;1.20;;
30934;SDS011;51033;42.648;23.292;2023-07-29T11:51:33;1.20;;;1.05;;
30934;SDS011;51033;42.648;23.292;2023-07-29T11:53:59;1.70;;;1.00;;
30934;SDS011;51033;42.648;23.292;2023-07-29T11:56:25;3.47;;;1.23;;
30934;SDS011;51033;42.648;23.292;2023-07-29T11:58:55;1.02;;;0.80;;
30934;SDS011;51033;42.648;23.292;2023-07-29T12:01:22;2.15;;;1.15;;
30934;SDS011;51033;42.648;23.292;2023-07-29T12:03:47;2.58;;;1.08;;
30934;SDS011;51033;42.648;23.292;2023-07-29T12:06:14;2.90;;;1.20;;
30934;SDS011;51033;42.648;23.292;2023-07-29T12:08:40;4.25;;;1.40;;
30934;SDS011;51033;42.648;23.292;2023-07-29T12:11:07;2.05;;;1.00;;
30934;SDS011;51033;42.648;23.292;2023-07-29T12:13:33;1.10;;;0.88;;
30934;SDS011;51033;42.648;23.292;2023-07-29T12:16:02;2.17;;;1.05;;
30934;SDS011;51033;42.648;23.292;2023-07-29T12:18:31;0.93;;;0.82;;
30934;SDS011;51033;42.648;23.292;2023-07-29T12:20:58;2.90;;;0.95;;
30934;SDS011;51033;42.648;23.292;2023-07-29T12:23:24;1.42;;;0.90;;
30934;SDS011;51033;42.648;23.292;2023-07-29T12:25:57;1.50;;;1.00;;
30934;SDS011;51033;42.648;23.292;2023-07-29T12:28:24;1.40;;;1.02;;
30934;SDS011;51033;42.648;23.292;2023-07-29T12:30:56;1.10;;;0.90;;
30934;SDS011;51033;42.648;23.292;2023-07-29T12:36:00;2.08;;;0.95;;
30934;SDS011;51033;42.648;23.292;2023-07-29T12:38:27;3.13;;;1.20;;
30934;SDS011;51033;42.648;23.292;2023-07-29T12:40:54;4.28;;;1.10;;
30934;SDS011;51033;42.648;23.292;2023-07-29T12:43:21;1.30;;;1.00;;
30934;SDS011;51033;42.648;23.292;2023-07-29T12:45:49;2.40;;;0.93;;
30934;SDS011;51033;42.648;23.292;2023-07-29T12:48:15;2.63;;;1.08;;
30934;SDS011;51033;42.648;23.292;2023-07-29T12:50:40;2.42;;;1.10;;
30934;SDS011;51033;42.648;23.292;2023-07-29T12:53:06;2.47;;;0.95;;
30934;SDS011;51033;42.648;23.292;2023-07-29T12:55:33;0.80;;;0.80;;
30934;SDS011;51033;42.648;23.292;2023-07-29T12:57:59;2.30;;;1.20;;
30934;SDS011;51033;42.648;23.292;2023-07-29T13:00:26;1.70;;;1.00;;
30934;SDS011;51033;42.648;23.292;2023-07-29T13:02:51;1.10;;;0.80;;
30934;SDS011;51033;42.648;23.292;2023-07-29T13:05:17;1.20;;;1.10;;
30934;SDS011;51033;42.648;23.292;2023-07-29T13:07:42;1.48;;;1.00;;
30934;SDS011;51033;42.648;23.292;2023-07-29T13:10:11;2.33;;;0.90;;
30934;SDS011;51033;42.648;23.292;2023-07-29T13:12:37;2.22;;;0.95;;
30934;SDS011;51033;42.648;23.292;2023-07-29T13:15:03;1.92;;;0.93;;
30934;SDS011;51033;42.648;23.292;2023-07-29T13:17:29;1.15;;;0.95;;
30934;SDS011;51033;42.648;23.292;2023-07-29T13:19:55;3.03;;;1.00;;
30934;SDS011;51033;42.648;23.292;2023-07-29T13:22:20;1.60;;;0.88;;
30934;SDS011;51033;42.648;23.292;2023-07-29T13:24:46;1.35;;;1.00;;
30934;SDS011;51033;42.648;23.292;2023-07-29T13:27:11;1.13;;;0.80;;
30934;SDS011;51033;42.648;23.292;2023-07-29T13:29:37;1.58;;;0.90;;
30934;SDS011;51033;42.648;23.292;2023-07-29T13:32:04;1.15;;;0.90;;
30934;SDS011;51033;42.648;23.292;2023-07-29T13:34:33;4.03;;;1.17;;
30934;SDS011;51033;42.648;23.292;2023-07-29T13:36:59;3.42;;;1.10;;
30934;SDS011;51033;42.648;23.292;2023-07-29T13:39:25;2.63;;;0.95;;
30934;SDS011;51033;42.648;23.292;2023-07-29T13:41:50;3.08;;;1.48;;
30934;SDS011;51033;42.648;23.292;2023-07-29T13:44:16;2.13;;;1.27;;
30934;SDS011;51033;42.648;23.292;2023-07-29T13:46:41;2.88;;;1.05;;
30934;SDS011;51033;42.648;23.292;2023-07-29T13:49:06;2.35;;;1.05;;
30934;SDS011;51033;42.648;23.292;2023-07-29T13:51:32;1.60;;;1.00;;
30934;SDS011;51033;42.648;23.292;2023-07-29T13:53:57;3.17;;;1.25;;
30934;SDS011;51033;42.648;23.292;2023-07-29T13:56:23;2.97;;;1.40;;
30934;SDS011;51033;42.648;23.292;2023-07-29T13:58:48;4.32;;;1.10;;
30934;SDS011;51033;42.648;23.292;2023-07-29T14:01:14;1.63;;;1.20;;
30934;SDS011;51033;42.648;23.292;2023-07-29T14:03:39;2.58;;;1.15;;
30934;SDS011;51033;42.648;23.292;2023-07-29T14:06:04;2.22;;;1.42;;
30934;SDS011;51033;42.648;23.292;2023-07-29T14:08:30;3.60;;;2.47;;
30934;SDS011;51033;42.648;23.292;2023-07-29T14:10:55;4.47;;;1.63;;
30934;SDS011;51033;42.648;23.292;2023-07-29T14:13:21;7.72;;;1.90;;
30934;SDS011;51033;42.648;23.292;2023-07-29T14:15:49;3.70;;;2.00;;
30934;SDS011;51033;42.648;23.292;2023-07-29T14:18:14;1.50;;;1.40;;
30934;SDS011;51033;42.648;23.292;2023-07-29T14:20:40;3.67;;;1.75;;
30934;SDS011;51033;42.648;23.292;2023-07-29T14:23:05;3.17;;;1.70;;
30934;SDS011;51033;42.648;23.292;2023-07-29T14:25:31;3.40;;;1.52;;
30934;SDS011;51033;42.648;23.292;2023-07-29T14:27:56;2.28;;;1.50;;
30934;SDS011;51033;42.648;23.292;2023-07-29T14:30:22;4.45;;;1.65;;
30934;SDS011;51033;42.648;23.292;2023-07-29T14:32:47;2.35;;;1.70;;
30934;SDS011;51033;42.648;23.292;2023-07-29T14:35:13;3.55;;;1.30;;
30934;SDS011;51033;42.648;23.292;2023-07-29T14:37:38;1.05;;;0.95;;
30934;SDS011;51033;42.648;23.292;2023-07-29T14:40:04;1.30;;;1.15;;
30934;SDS011;51033;42.648;23.292;2023-07-29T14:42:30;3.65;;;1.00;;
30934;SDS011;51033;42.648;23.292;2023-07-29T14:44:55;1.63;;;1.08;;
30934;SDS011;51033;42.648;23.292;2023-07-29T14:47:21;1.73;;;1.40;;
30934;SDS011;51033;42.648;23.292;2023-07-29T14:49:46;1.77;;;1.23;;
30934;SDS011;51033;42.648;23.292;2023-07-29T14:52:12;3.28;;;1.10;;
30934;SDS011;51033;42.648;23.292;2023-07-29T14:54:38;2.92;;;1.20;;